Time;durP1;ratioP1;P1;durP2;ratioP2;P2;SDS_P1;SDS_P2;PMS_P1;PMS_P2;Temp;Humidity;BMP_temperature;BMP_pressure;BME280_temperature;BME280_humidity;BME280_pressure;Samples;Min_cycle;Max_cycle;Signal;HPM_P1;HPM_P2
2024/01/15 00:02:08;;;;;;;50.97;8.75;;;1.20;99.90;;;;;;5078764;28;20059;-80
2024/01/15 00:04:40;;;;;;;49.30;9.23;;;1.20;99.90;;;;;;5075333;28;20047;-81
2024/01/15 00:07:07;;;;;;;52.67;8.98;;;1.20;99.90;;;;;;5079994;28;20098;-81
2024/01/15 00:09:33;;;;;;;41.25;8.52;;;1.20;99.90;;;;;;5069317;28;20415;-80
2024/01/15 00:12:00;;;;;;;48.90;8.13;;;1.20;99.90;;;;;;5077976;28;20108;-80
2024/01/15 00:14:26;;;;;;;44.70;8.18;;;1.20;99.90;;;;;;5090633;28;20039;-80
2024/01/15 00:16:54;;;;;;;63.33;9.48;;;1.20;99.90;;;;;;5075643;28;20043;-80
2024/01/15 00:19:20;;;;;;;44.33;8.70;;;1.30;99.90;;;;;;5077124;28;20059;-80
2024/01/15 00:21:46;;;;;;;43.35;7.78;;;1.30;99.90;;;;;;5086082;28;20349;-80
2024/01/15 00:24:12;;;;;;;52.28;8.07;;;1.30;99.90;;;;;;5088033;28;20062;-80
2024/01/15 00:26:37;;;;;;;48.70;9.00;;;1.30;99.90;;;;;;5084500;28;20493;-80
2024/01/15 00:29:03;;;;;;;60.80;9.15;;;1.30;99.90;;;;;;5072452;28;20080;-80
2024/01/15 00:31:30;;;;;;;52.75;8.45;;;1.40;99.90;;;;;;5078322;28;20059;-81
2024/01/15 00:33:57;;;;;;;48.95;7.88;;;1.40;99.90;;;;;;5074052;28;20041;-81
2024/01/15 00:36:23;;;;;;;61.13;8.93;;;1.50;99.90;;;;;;5084957;28;20048;-80
2024/01/15 00:38:48;;;;;;;54.25;8.98;;;1.50;99.90;;;;;;5073699;28;20044;-81
2024/01/15 00:41:15;;;;;;;55.80;9.30;;;1.50;99.90;;;;;;5085020;28;20047;-81
2024/01/15 00:43:40;;;;;;;41.25;6.00;;;1.50;99.90;;;;;;5078622;28;20083;-81
2024/01/15 00:46:06;;;;;;;31.27;5.10;;;1.50;99.90;;;;;;5072218;28;20072;-81
2024/01/15 00:48:32;;;;;;;42.47;6.30;;;1.50;99.90;;;;;;5084411;28;20086;-82
2024/01/15 00:50:58;;;;;;;34.15;5.65;;;1.50;99.90;;;;;;5078809;28;20485;-82
2024/01/15 00:53:23;;;;;;;35.28;6.72;;;1.40;99.90;;;;;;5066436;28;20801;-83
2024/01/15 00:55:49;;;;;;;53.35;7.68;;;1.40;99.90;;;;;;5067850;28;20064;-82
2024/01/15 00:58:15;;;;;;;55.25;8.77;;;1.40;99.90;;;;;;5052581;28;20127;-81
2024/01/15 01:00:41;;;;;;;49.70;8.20;;;1.40;99.90;;;;;;5070135;28;20083;-82
2024/01/15 01:03:07;;;;;;;40.60;6.97;;;1.40;99.90;;;;;;5071669;28;20124;-81
2024/01/15 01:05:34;;;;;;;44.17;6.88;;;1.40;99.90;;;;;;5075452;28;20048;-80
2024/01/15 01:08:00;;;;;;;52.83;8.55;;;1.40;99.90;;;;;;5072490;28;20098;-80
2024/01/15 01:10:26;;;;;;;46.67;8.68;;;1.40;99.90;;;;;;5074722;28;20040;-81
2024/01/15 01:12:52;;;;;;;51.78;8.68;;;1.40;99.90;;;;;;5073868;28;20536;-81
2024/01/15 01:15:17;;;;;;;37.38;6.18;;;1.40;99.90;;;;;;5066161;28;20193;-81
2024/01/15 01:17:43;;;;;;;57.60;9.82;;;1.40;99.90;;;;;;5071553;28;20062;-81
2024/01/15 01:20:10;;;;;;;52.85;8.20;;;1.40;99.90;;;;;;5072425;28;20533;-81
2024/01/15 01:22:36;;;;;;;47.00;7.22;;;1.30;99.90;;;;;;5074008;28;20040;-81
2024/01/15 01:25:02;;;;;;;44.17;7.93;;;1.30;99.90;;;;;;5071415;28;20480;-81
2024/01/15 01:27:28;;;;;;;48.45;7.57;;;1.40;99.90;;;;;;5075143;28;20606;-80
2024/01/15 01:29:54;;;;;;;46.00;7.63;;;1.30;99.90;;;;;;5084993;28;20123;-81
2024/01/15 01:32:20;;;;;;;58.97;8.27;;;1.30;99.90;;;;;;5059631;28;20123;-81
2024/01/15 01:34:45;;;;;;;39.70;8.27;;;1.30;99.90;;;;;;5068999;28;20051;-81
2024/01/15 01:37:14;;;;;;;67.20;8.77;;;1.20;99.90;;;;;;5077820;28;20067;-81
2024/01/15 01:39:41;;;;;;;40.65;6.90;;;1.20;99.90;;;;;;5071994;28;20051;-81
2024/01/15 01:42:07;;;;;;;38.13;8.07;;;1.20;99.90;;;;;;5078022;28;20052;-81
2024/01/15 01:44:32;;;;;;;56.80;8.20;;;1.20;99.90;;;;;;5075961;28;20060;-82
2024/01/15 01:46:59;;;;;;;41.42;8.80;;;1.20;99.90;;;;;;5060704;28;20036;-81
2024/01/15 01:49:26;;;;;;;51.92;8.57;;;1.20;99.90;;;;;;5079376;28;20493;-81
2024/01/15 01:51:53;;;;;;;58.20;8.52;;;1.20;99.90;;;;;;5070683;28;20040;-81
2024/01/15 01:54:20;;;;;;;53.30;7.32;;;1.20;99.90;;;;;;5059981;28;20048;-81
2024/01/15 01:56:47;;;;;;;41.70;7.65;;;1.30;99.90;;;;;;5077816;28;20059;-80
2024/01/15 01:59:13;;;;;;;49.60;8.13;;;1.20;99.90;;;;;;5069171;28;20040;-81
2024/01/15 02:01:39;;;;;;;42.58;7.35;;;1.30;99.90;;;;;;5071015;28;20046;-81
2024/01/15 02:04:05;;;;;;;34.00;6.15;;;1.30;99.90;;;;;;5068611;28;20466;-81
2024/01/15 02:06:31;;;;;;;49.83;6.90;;;1.30;99.90;;;;;;5080842;28;20131;-81
2024/01/15 02:08:57;;;;;;;43.13;6.82;;;1.30;99.90;;;;;;5076487;28;20134;-80
2024/01/15 02:11:22;;;;;;;37.00;7.68;;;1.30;99.90;;;;;;5074881;28;20072;-81
2024/01/15 02:13:48;;;;;;;36.83;6.18;;;1.30;99.90;;;;;;5075809;28;20552;-80
2024/01/15 02:16:14;;;;;;;26.73;5.90;;;1.30;99.90;;;;;;5066809;28;20105;-80
2024/01/15 02:18:44;;;;;;;45.35;7.22;;;1.30;99.90;;;;;;5071954;28;20130;-80
2024/01/15 02:21:10;;;;;;;36.92;6.43;;;1.30;99.90;;;;;;5070362;28;20105;-80
2024/01/15 02:23:36;;;;;;;33.33;5.45;;;1.30;99.90;;;;;;5076566;28;20577;-81
2024/01/15 02:26:02;;;;;;;28.77;5.03;;;1.30;99.90;;;;;;5078757;28;20123;-79
2024/01/15 02:28:28;;;;;;;29.17;4.32;;;1.30;99.90;;;;;;5075562;28;20165;-80
2024/01/15 02:30:53;;;;;;;25.88;4.13;;;1.30;99.90;;;;;;5051541;28;20604;-79
2024/01/15 02:33:19;;;;;;;33.30;4.05;;;1.30;99.90;;;;;;5075152;28;20052;-79
2024/01/15 02:35:46;;;;;;;24.83;4.10;;;1.30;99.90;;;;;;5074111;28;20052;-79
2024/01/15 02:38:12;;;;;;;21.35;3.92;;;1.30;99.90;;;;;;5075077;28;20056;-79
2024/01/15 02:40:38;;;;;;;35.08;5.35;;;1.30;99.90;;;;;;5079723;28;20401;-80
2024/01/15 02:43:04;;;;;;;19.13;4.00;;;1.30;99.90;;;;;;5076340;28;20233;-80
2024/01/15 02:45:30;;;;;;;21.88;4.82;;;1.30;99.90;;;;;;5089443;28;20576;-80
2024/01/15 02:47:56;;;;;;;26.27;5.05;;;1.30;99.90;;;;;;5077607;28;20127;-80
2024/01/15 02:50:21;;;;;;;45.17;5.57;;;1.30;99.90;;;;;;5089133;28;20185;-80
2024/01/15 02:52:47;;;;;;;30.25;4.78;;;1.30;99.90;;;;;;5089821;28;20047;-80
2024/01/15 02:55:12;;;;;;;37.47;5.63;;;1.30;99.90;;;;;;5085257;28;20048;-79
2024/01/15 02:57:40;;;;;;;40.65;6.43;;;1.30;99.90;;;;;;5078828;28;20049;-79
2024/01/15 03:00:07;;;;;;;37.45;5.80;;;1.30;99.90;;;;;;5082699;28;20051;-80
2024/01/15 03:02:35;;;;;;;44.97;6.90;;;1.30;99.90;;;;;;5087384;28;20060;-80
2024/01/15 03:05:01;;;;;;;47.47;8.20;;;1.30;99.90;;;;;;5079244;28;20097;-80
2024/01/15 03:07:28;;;;;;;40.88;8.43;;;1.30;99.90;;;;;;5084810;28;20060;-80
2024/01/15 03:09:55;;;;;;;40.55;6.72;;;1.40;99.90;;;;;;5084930;28;20048;-80
2024/01/15 03:12:20;;;;;;;44.70;8.38;;;1.40;99.90;;;;;;5085893;28;20097;-79
2024/01/15 03:14:46;;;;;;;38.80;7.57;;;1.40;99.90;;;;;;5089641;28;20044;-80
2024/01/15 03:17:12;;;;;;;41.03;6.13;;;1.40;99.90;;;;;;5083868;28;20125;-80
2024/01/15 03:19:38;;;;;;;6.57;1.95;;;1.40;99.90;;;;;;5077362;28;20073;-79
2024/01/15 03:22:03;;;;;;;39.33;6.40;;;1.30;99.90;;;;;;5088253;28;20047;-79
2024/01/15 03:24:30;;;;;;;51.75;8.43;;;1.30;99.90;;;;;;5086292;28;20068;-79
2024/01/15 03:26:56;;;;;;;49.72;7.88;;;1.30;99.90;;;;;;5076191;28;20048;-79
2024/01/15 03:29:22;;;;;;;44.78;7.82;;;1.30;99.90;;;;;;5080730;28;20052;-79
2024/01/15 03:31:48;;;;;;;38.67;6.90;;;1.40;99.90;;;;;;5083644;28;20702;-79
2024/01/15 03:34:13;;;;;;;36.33;7.38;;;1.40;99.90;;;;;;5075243;28;20104;-79
2024/01/15 03:36:40;;;;;;;37.35;8.75;;;1.40;99.90;;;;;;5084295;28;20092;-79
2024/01/15 03:39:06;;;;;;;58.15;9.23;;;1.40;99.90;;;;;;5089575;28;20068;-79
2024/01/15 03:41:31;;;;;;;53.65;9.10;;;1.40;99.90;;;;;;5083376;28;20382;-79
2024/01/15 03:43:58;;;;;;;48.88;7.80;;;1.40;99.90;;;;;;5088811;28;20058;-79
2024/01/15 03:46:24;;;;;;;41.90;8.57;;;1.40;99.90;;;;;;5078317;28;20417;-79
2024/01/15 03:48:49;;;;;;;53.05;8.60;;;1.50;99.90;;;;;;5073093;28;20056;-79
2024/01/15 03:51:17;;;;;;;56.47;8.32;;;1.50;99.90;;;;;;5069581;28;20048;-79
2024/01/15 03:53:43;;;;;;;59.97;8.88;;;1.50;99.90;;;;;;5067770;28;20040;-79
2024/01/15 03:56:08;;;;;;;47.15;8.68;;;1.50;99.90;;;;;;5084022;28;20048;-79
2024/01/15 03:58:34;;;;;;;52.53;8.75;;;1.50;99.90;;;;;;5090592;28;20044;-79
2024/01/15 04:00:59;;;;;;;65.22;9.65;;;1.50;99.90;;;;;;5080934;28;20052;-79
2024/01/15 04:03:25;;;;;;;53.13;8.88;;;1.50;99.90;;;;;;5077082;28;20045;-80
2024/01/15 04:05:51;;;;;;;57.83;9.27;;;1.50;99.90;;;;;;5081128;28;20044;-79
2024/01/15 04:08:16;;;;;;;53.10;8.77;;;1.40;99.90;;;;;;5088301;28;20485;-79
2024/01/15 04:10:42;;;;;;;53.13;8.25;;;1.40;99.90;;;;;;5085453;28;20071;-79
2024/01/15 04:13:07;;;;;;;55.15;8.00;;;1.40;99.90;;;;;;5081573;28;20040;-80
2024/01/15 04:15:33;;;;;;;48.30;8.02;;;1.40;99.90;;;;;;5078935;28;20048;-80
2024/01/15 04:17:59;;;;;;;50.88;8.82;;;1.40;99.90;;;;;;5080636;28;20249;-79
2024/01/15 04:20:24;;;;;;;57.97;10.02;;;1.40;99.90;;;;;;5081256;28;20054;-80
2024/01/15 04:22:50;;;;;;;53.20;8.85;;;1.40;99.90;;;;;;5074313;28;20051;-80
2024/01/15 04:25:15;;;;;;;67.32;9.63;;;1.40;99.90;;;;;;5069175;28;20049;-79
2024/01/15 04:27:41;;;;;;;53.33;9.25;;;1.50;99.90;;;;;;5072099;28;20072;-79
2024/01/15 04:30:07;;;;;;;51.40;8.63;;;1.50;99.90;;;;;;5073407;28;20054;-79
2024/01/15 04:32:33;;;;;;;35.47;6.60;;;1.50;99.90;;;;;;5082547;28;20058;-80
2024/01/15 04:34:58;;;;;;;58.30;8.43;;;1.50;99.90;;;;;;5074551;28;20048;-80
2024/01/15 04:37:24;;;;;;;54.60;7.95;;;1.60;99.90;;;;;;5076151;28;20482;-80
2024/01/15 04:39:52;;;;;;;52.47;8.50;;;1.50;99.90;;;;;;5071265;28;20044;-80
2024/01/15 04:42:18;;;;;;;;;;;1.50;99.90;;;;;;5075058;28;20143;-81
2024/01/15 04:44:43;;;;;;;51.75;8.05;;;1.50;99.90;;;;;;5073314;28;20038;-80
2024/01/15 04:47:09;;;;;;;42.38;6.95;;;1.50;99.90;;;;;;5084098;28;20467;-80
2024/01/15 04:49:34;;;;;;;53.50;8.02;;;1.50;99.90;;;;;;5081747;28;20039;-80
2024/01/15 04:52:00;;;;;;;36.35;7.72;;;1.50;99.90;;;;;;5075760;28;20048;-80
2024/01/15 04:54:26;;;;;;;49.28;7.82;;;1.50;99.90;;;;;;5067875;28;20254;-80
2024/01/15 04:56:51;;;;;;;43.08;7.30;;;1.40;99.90;;;;;;5066907;28;20045;-79
2024/01/15 04:59:17;;;;;;;43.83;6.03;;;1.40;99.90;;;;;;5073352;28;20086;-79
2024/01/15 05:01:43;;;;;;;26.85;5.40;;;1.40;99.90;;;;;;5083786;28;20053;-79
2024/01/15 05:04:09;;;;;;;27.45;5.95;;;1.30;99.90;;;;;;5084575;28;20713;-79
2024/01/15 05:06:34;;;;;;;30.52;5.15;;;1.30;99.90;;;;;;5082677;28;20036;-79
2024/01/15 05:09:00;;;;;;;25.55;5.95;;;1.30;99.90;;;;;;5083303;28;20119;-80
2024/01/15 05:11:26;;;;;;;28.00;5.25;;;1.30;99.90;;;;;;5075021;28;20067;-79
2024/01/15 05:13:51;;;;;;;35.35;6.28;;;1.30;99.90;;;;;;5074182;28;20085;-79
2024/01/15 05:16:17;;;;;;;15.15;4.97;;;1.30;99.90;;;;;;5085607;28;20093;-79
2024/01/15 05:18:43;;;;;;;27.80;5.22;;;1.20;99.90;;;;;;5069697;28;20059;-80
2024/01/15 05:21:09;;;;;;;22.27;4.43;;;1.20;99.90;;;;;;5077631;28;20051;-79
2024/01/15 05:23:35;;;;;;;28.77;5.53;;;1.20;99.90;;;;;;5078323;28;20072;-80
2024/01/15 05:26:00;;;;;;;27.02;4.88;;;1.20;99.90;;;;;;5079195;28;20405;-79
2024/01/15 05:28:26;;;;;;;19.00;4.10;;;1.10;99.90;;;;;;5075683;28;20052;-79
2024/01/15 05:30:52;;;;;;;27.52;4.55;;;1.10;99.90;;;;;;5078555;28;20511;-79
2024/01/15 05:33:17;;;;;;;28.55;4.85;;;1.10;99.90;;;;;;5077038;28;20040;-79
2024/01/15 05:35:43;;;;;;;26.00;4.57;;;1.10;99.90;;;;;;5057998;28;20056;-79
2024/01/15 05:38:09;;;;;;;18.05;4.05;;;1.10;99.90;;;;;;5063214;28;20825;-79
2024/01/15 05:40:34;;;;;;;28.05;4.68;;;1.10;99.90;;;;;;5069738;28;20507;-79
2024/01/15 05:43:00;;;;;;;21.77;4.43;;;1.10;99.90;;;;;;5081447;28;20098;-79
2024/01/15 05:45:30;;;;;;;22.40;5.28;;;1.10;99.90;;;;;;5075959;28;20036;-80
2024/01/15 05:48:03;;;;;;;29.73;5.30;;;1.10;99.90;;;;;;5055272;28;20116;-80
2024/01/15 05:50:29;;;;;;;37.22;5.53;;;1.10;99.90;;;;;;5071106;28;20410;-80
2024/01/15 05:52:55;;;;;;;40.63;6.53;;;1.10;99.90;;;;;;5073568;28;20058;-80
2024/01/15 05:55:20;;;;;;;42.38;6.35;;;1.10;99.90;;;;;;5074757;28;20117;-79
2024/01/15 05:57:46;;;;;;;43.85;6.80;;;1.10;99.90;;;;;;5069822;28;20062;-79
2024/01/15 06:00:12;;;;;;;25.55;6.20;;;1.10;99.90;;;;;;5076544;28;20898;-80
2024/01/15 06:02:38;;;;;;;45.35;6.18;;;1.10;99.90;;;;;;5080807;28;20037;-79
2024/01/15 06:05:04;;;;;;;32.20;6.45;;;1.10;99.90;;;;;;5090269;28;20456;-79
2024/01/15 06:07:30;;;;;;;39.40;7.00;;;1.10;99.90;;;;;;5077086;28;20041;-79
2024/01/15 06:09:56;;;;;;;29.70;5.97;;;1.10;99.90;;;;;;5070423;28;20046;-79
2024/01/15 06:12:22;;;;;;;26.33;4.97;;;1.10;99.90;;;;;;5072362;28;20052;-80
2024/01/15 06:14:48;;;;;;;38.42;6.50;;;1.10;99.90;;;;;;5079660;28;20059;-79
2024/01/15 06:17:14;;;;;;;34.03;5.13;;;1.10;99.90;;;;;;5076542;28;20048;-79
2024/01/15 06:19:39;;;;;;;33.08;5.63;;;1.10;99.90;;;;;;5071829;28;20044;-79
2024/01/15 06:22:05;;;;;;;32.70;6.53;;;1.10;99.90;;;;;;5076644;28;20500;-79
2024/01/15 06:24:31;;;;;;;19.92;5.10;;;1.00;99.90;;;;;;5074868;28;20397;-80
2024/01/15 06:26:56;;;;;;;36.97;6.43;;;1.00;99.90;;;;;;5070711;28;20108;-79
2024/01/15 06:29:24;;;;;;;32.97;5.45;;;1.00;99.90;;;;;;5081674;28;20090;-79
2024/01/15 06:31:49;;;;;;;28.67;5.50;;;1.00;99.90;;;;;;5068651;28;20052;-79
2024/01/15 06:34:15;;;;;;;40.50;7.53;;;1.00;99.90;;;;;;5079167;28;20059;-79
2024/01/15 06:36:40;;;;;;;28.20;6.97;;;1.00;99.90;;;;;;5080163;28;20085;-80
2024/01/15 06:39:06;;;;;;;89.68;42.45;;;1.00;99.90;;;;;;5070147;28;20044;-79
2024/01/15 06:41:32;;;;;;;33.58;7.85;;;1.00;99.90;;;;;;5080999;28;20495;-79
2024/01/15 06:43:57;;;;;;;39.40;6.85;;;1.00;99.90;;;;;;5084806;28;20071;-80
2024/01/15 06:46:23;;;;;;;38.00;7.45;;;1.00;99.90;;;;;;5085458;28;20671;-80
2024/01/15 06:48:49;;;;;;;40.00;7.13;;;1.00;99.90;;;;;;5085211;28;20071;-79
2024/01/15 06:51:16;;;;;;;37.45;6.63;;;1.00;99.90;;;;;;5071021;28;20487;-80
2024/01/15 06:53:41;;;;;;;45.85;7.07;;;1.00;99.90;;;;;;5072425;28;20146;-81
2024/01/15 06:56:08;;;;;;;34.03;7.53;;;1.00;99.90;;;;;;5071171;28;20061;-83
2024/01/15 06:58:34;;;;;;;38.03;9.88;;;1.00;99.90;;;;;;5086622;28;20118;-79
2024/01/15 07:01:00;;;;;;;49.13;11.25;;;1.00;99.90;;;;;;5078571;28;20470;-79
2024/01/15 07:03:25;;;;;;;48.10;8.27;;;1.00;99.90;;;;;;5077559;28;20054;-79
2024/01/15 07:05:51;;;;;;;36.30;9.07;;;1.00;99.90;;;;;;5077808;28;20516;-79
2024/01/15 07:08:17;;;;;;;40.83;9.07;;;1.00;99.90;;;;;;5074438;28;20048;-79
2024/01/15 07:10:42;;;;;;;45.75;8.68;;;1.00;99.90;;;;;;5084495;28;20051;-79
2024/01/15 07:13:08;;;;;;;62.13;8.40;;;1.00;99.90;;;;;;5075789;28;20036;-79
2024/01/15 07:15:34;;;;;;;50.28;8.60;;;1.00;99.90;;;;;;5079140;28;20071;-79
2024/01/15 07:18:01;;;;;;;31.52;7.40;;;1.00;99.90;;;;;;5088498;28;20102;-79
2024/01/15 07:20:27;;;;;;;46.22;7.22;;;1.00;99.90;;;;;;5074382;28;20054;-80
2024/01/15 07:22:53;;;;;;;39.53;8.20;;;0.90;99.90;;;;;;5075436;28;20044;-79
2024/01/15 07:25:18;;;;;;;53.20;9.60;;;0.90;99.90;;;;;;5074358;28;20390;-79
2024/01/15 07:27:44;;;;;;;60.13;9.00;;;0.90;99.90;;;;;;5065957;28;20409;-79
2024/01/15 07:30:13;;;;;;;41.85;7.53;;;0.90;99.90;;;;;;5075744;28;20056;-79
2024/01/15 07:32:40;;;;;;;48.03;8.48;;;0.90;99.90;;;;;;5078077;28;20048;-79
2024/01/15 07:35:32;;;;;;;38.88;9.05;;;0.90;99.90;;;;;;5081916;28;20101;-80
2024/01/15 07:38:17;;;;;;;50.15;8.52;;;0.90;99.90;;;;;;5075901;28;20044;-79
2024/01/15 07:40:43;;;;;;;42.78;7.85;;;0.90;99.90;;;;;;5078747;28;20049;-80
2024/01/15 07:43:08;;;;;;;47.33;8.55;;;0.90;99.90;;;;;;5089971;28;20044;-79
2024/01/15 07:45:34;;;;;;;48.85;8.57;;;0.90;99.90;;;;;;5082208;28;20047;-79
2024/01/15 07:47:59;;;;;;;49.95;8.65;;;0.90;99.90;;;;;;5086386;28;20044;-79
2024/01/15 07:50:25;;;;;;;56.40;8.38;;;0.90;99.90;;;;;;5079429;28;20071;-79
2024/01/15 07:52:51;;;;;;;57.17;8.27;;;0.90;99.90;;;;;;5081280;28;20116;-79
2024/01/15 07:55:16;;;;;;;36.67;8.10;;;0.80;99.90;;;;;;5078378;28;20048;-80
2024/01/15 07:57:42;;;;;;;43.13;7.90;;;0.80;99.90;;;;;;5074642;28;20155;-81
2024/01/15 08:00:09;;;;;;;49.28;8.93;;;0.80;99.90;;;;;;5074774;28;20036;-81
2024/01/15 08:02:34;;;;;;;39.33;8.80;;;0.80;99.90;;;;;;5086096;28;20052;-82
2024/01/15 08:05:01;;;;;;;64.57;8.68;;;0.80;99.90;;;;;;5077426;28;20267;-82
2024/01/15 08:07:26;;;;;;;58.08;7.82;;;0.80;99.90;;;;;;5067430;28;20041;-81
2024/01/15 08:09:52;;;;;;;54.60;7.97;;;0.80;99.90;;;;;;5085031;28;20059;-80
2024/01/15 08:12:18;;;;;;;43.72;6.90;;;0.80;99.90;;;;;;5081028;28;20068;-82
2024/01/15 08:14:45;;;;;;;56.45;9.18;;;0.80;99.90;;;;;;5073248;28;20052;-79
2024/01/15 08:17:11;;;;;;;42.00;8.32;;;0.80;99.90;;;;;;5076918;28;20520;-80
2024/01/15 08:19:36;;;;;;;41.05;7.07;;;0.80;99.90;;;;;;5083201;28;20044;-82
2024/01/15 08:22:02;;;;;;;40.55;7.22;;;0.90;99.90;;;;;;5078664;28;20044;-82
2024/01/15 08:24:28;;;;;;;42.80;6.80;;;0.90;99.90;;;;;;5078255;28;20040;-81
2024/01/15 08:26:54;;;;;;;41.22;6.75;;;0.80;99.90;;;;;;5079163;28;20064;-81
2024/01/15 08:29:20;;;;;;;53.80;7.15;;;1.00;99.90;;;;;;5077102;28;20044;-79
2024/01/15 08:31:46;;;;;;;55.03;7.53;;;1.00;99.90;;;;;;5083569;28;20505;-82
2024/01/15 08:34:12;;;;;;;38.97;7.85;;;1.00;99.90;;;;;;5087245;28;20040;-81
2024/01/15 08:36:37;;;;;;;66.45;9.80;;;1.00;99.90;;;;;;5086784;28;20047;-81
2024/01/15 08:39:04;;;;;;;58.17;9.05;;;1.00;99.90;;;;;;5081587;28;20044;-81
2024/01/15 08:41:32;;;;;;;40.50;8.18;;;1.10;99.90;;;;;;5078957;28;20093;-81
2024/01/15 08:43:58;;;;;;;30.05;7.18;;;1.10;99.90;;;;;;5074796;28;20045;-81
2024/01/15 08:46:24;;;;;;;44.90;8.45;;;1.10;99.90;;;;;;5079850;28;20059;-80
2024/01/15 08:48:50;;;;;;;46.03;9.25;;;1.10;99.90;;;;;;5077959;28;20052;-79
2024/01/15 08:51:15;;;;;;;43.03;9.18;;;1.10;99.90;;;;;;5078387;28;20043;-80
2024/01/15 08:53:41;;;;;;;36.63;8.45;;;1.00;99.90;;;;;;5069033;28;20049;-80
2024/01/15 08:56:08;;;;;;;45.85;7.63;;;1.10;99.90;;;;;;5071362;28;20052;-80
2024/01/15 08:58:34;;;;;;;55.72;9.48;;;1.10;99.90;;;;;;5070506;28;20472;-79
2024/01/15 09:00:59;;;;;;;68.88;10.75;;;1.10;99.90;;;;;;5076525;28;20056;-80
2024/01/15 09:03:25;;;;;;;48.58;8.98;;;1.10;99.90;;;;;;5070764;28;20096;-80
2024/01/15 09:05:51;;;;;;;56.53;9.13;;;1.10;99.90;;;;;;5078967;28;20044;-79
2024/01/15 09:08:16;;;;;;;44.38;9.25;;;1.10;99.90;;;;;;5074683;28;20043;-80
2024/01/15 09:10:42;;;;;;;63.45;8.68;;;1.10;99.90;;;;;;5080816;28;20040;-79
2024/01/15 09:13:08;;;;;;;51.08;8.75;;;1.20;99.90;;;;;;5071979;28;20493;-79
2024/01/15 09:15:33;;;;;;;52.15;9.63;;;1.20;99.90;;;;;;5073070;28;20535;-81
2024/01/15 09:18:00;;;;;;;56.13;9.50;;;1.20;99.90;;;;;;5072400;28;20468;-81
2024/01/15 09:20:27;;;;;;;41.47;9.05;;;1.30;99.90;;;;;;5071491;28;20049;-80
2024/01/15 09:22:52;;;;;;;51.80;9.40;;;1.30;99.90;;;;;;5073131;28;20391;-81
2024/01/15 09:25:18;;;;;;;39.35;8.18;;;1.40;99.90;;;;;;5074343;28;20047;-81
2024/01/15 09:27:44;;;;;;;43.22;7.85;;;1.40;99.90;;;;;;5076584;28;20338;-81
2024/01/15 09:30:11;;;;;;;44.80;7.90;;;1.50;99.90;;;;;;5073809;28;20051;-82
2024/01/15 09:32:36;;;;;;;46.83;8.25;;;1.50;99.90;;;;;;5076583;28;20094;-82
2024/01/15 09:35:02;;;;;;;38.70;7.25;;;1.60;99.90;;;;;;5073322;28;20040;-81
2024/01/15 09:37:28;;;;;;;25.70;5.50;;;1.50;99.90;;;;;;5070562;28;20135;-81
2024/01/15 09:39:55;;;;;;;36.13;5.90;;;1.50;99.90;;;;;;5074939;28;20071;-81
2024/01/15 09:42:24;;;;;;;5.03;1.80;;;1.50;99.90;;;;;;5067562;28;20049;-81
2024/01/15 09:44:51;;;;;;;30.23;6.30;;;1.50;99.90;;;;;;5074732;28;20044;-82
2024/01/15 09:47:18;;;;;;;38.92;8.00;;;1.50;99.90;;;;;;5072598;28;20658;-81
2024/01/15 09:49:43;;;;;;;49.05;7.53;;;1.60;99.90;;;;;;5076681;28;20523;-82
2024/01/15 09:52:11;;;;;;;29.98;7.25;;;1.60;99.90;;;;;;5075638;28;20048;-82
2024/01/15 09:54:38;;;;;;;44.78;8.05;;;1.60;99.90;;;;;;5073984;28;20048;-82
2024/01/15 09:57:04;;;;;;;51.97;12.30;;;1.70;99.90;;;;;;5070920;28;20055;-82
2024/01/15 09:59:30;;;;;;;117.53;45.35;;;1.70;99.90;;;;;;5066309;28;20398;-82
2024/01/15 10:01:58;;;;;;;49.63;13.38;;;1.70;99.90;;;;;;5078894;28;20055;-81
2024/01/15 10:04:24;;;;;;;39.50;9.27;;;1.80;99.90;;;;;;5077420;28;20048;-83
2024/01/15 10:06:51;;;;;;;38.72;7.78;;;1.80;99.90;;;;;;5077017;28;20046;-81
2024/01/15 10:09:17;;;;;;;39.97;8.50;;;1.90;99.90;;;;;;5066032;28;20040;-81
2024/01/15 10:11:44;;;;;;;43.83;9.05;;;2.00;99.90;;;;;;5082955;28;20040;-81
2024/01/15 10:14:13;;;;;;;33.22;9.02;;;2.00;99.90;;;;;;5072049;28;20091;-81
2024/01/15 10:16:39;;;;;;;40.88;9.07;;;2.00;99.90;;;;;;5074229;28;20123;-82
2024/01/15 10:19:05;;;;;;;42.88;8.18;;;2.00;99.90;;;;;;5081167;28;20079;-82
2024/01/15 10:21:35;;;;;;;52.58;13.52;;;1.90;99.90;;;;;;5070222;28;20087;-81
2024/01/15 10:24:02;;;;;;;37.25;9.07;;;1.90;99.90;;;;;;5068298;28;20076;-81
2024/01/15 10:26:28;;;;;;;57.00;14.15;;;1.90;99.90;;;;;;5080444;28;20148;-80
2024/01/15 10:28:53;;;;;;;44.30;9.15;;;1.80;99.90;;;;;;5082046;28;20079;-80
2024/01/15 10:31:19;;;;;;;61.53;21.13;;;1.80;99.90;;;;;;5076977;28;20293;-81
2024/01/15 10:33:45;;;;;;;72.35;13.88;;;1.80;99.90;;;;;;5087126;28;20078;-80
2024/01/15 10:36:13;;;;;;;41.08;9.40;;;1.80;99.90;;;;;;5055639;28;20045;-81
2024/01/15 10:38:39;;;;;;;34.97;7.45;;;1.90;99.90;;;;;;5066992;28;20044;-81
2024/01/15 10:41:04;;;;;;;46.00;8.10;;;1.90;99.90;;;;;;5068899;28;20056;-81
2024/01/15 10:43:30;;;;;;;43.40;8.65;;;2.00;99.90;;;;;;5074492;28;20040;-80
2024/01/15 10:45:56;;;;;;;51.47;7.80;;;2.00;99.90;;;;;;5073229;28;20040;-80
2024/01/15 10:48:22;;;;;;;39.42;8.00;;;2.00;99.90;;;;;;5070329;28;20059;-79
2024/01/15 10:50:48;;;;;;;43.03;6.93;;;2.10;99.90;;;;;;5063511;28;20052;-79
2024/01/15 10:53:16;;;;;;;61.40;8.05;;;2.10;99.90;;;;;;5070844;28;20497;-79
2024/01/15 10:55:42;;;;;;;41.65;7.35;;;2.20;99.90;;;;;;5071741;28;20498;-79
2024/01/15 10:58:10;;;;;;;27.30;6.03;;;2.30;99.90;;;;;;5079516;28;20052;-80
2024/01/15 11:00:37;;;;;;;32.40;6.00;;;2.40;99.90;;;;;;5077213;28;20450;-79
2024/01/15 11:03:05;;;;;;;26.08;5.78;;;2.30;99.90;;;;;;5068215;28;20041;-80
2024/01/15 11:05:46;;;;;;;32.10;6.32;;;2.30;99.90;;;;;;5078274;28;20052;-80
2024/01/15 11:08:17;;;;;;;35.15;6.35;;;2.20;99.90;;;;;;5076100;28;20036;-79
2024/01/15 11:10:51;;;;;;;25.20;6.00;;;2.20;99.90;;;;;;5081623;28;20048;-78
2024/01/15 11:13:22;;;;;;;32.47;6.20;;;2.20;99.90;;;;;;5080564;28;20118;-78
2024/01/15 11:16:07;;;;;;;24.45;5.28;;;2.20;99.90;;;;;;5074656;28;20083;-79
2024/01/15 11:18:43;;;;;;;20.20;4.55;;;2.10;99.90;;;;;;5070566;28;20036;-79
2024/01/15 11:21:15;;;;;;;21.85;4.72;;;2.20;99.90;;;;;;5071564;28;20048;-79
2024/01/15 11:23:52;;;;;;;27.67;5.25;;;2.20;99.90;;;;;;5082903;28;20470;-78
2024/01/15 11:26:30;;;;;;;19.92;4.65;;;2.20;99.90;;;;;;5074626;28;20031;-78
2024/01/15 11:28:56;;;;;;;21.25;4.88;;;2.10;99.90;;;;;;5077018;28;20897;-79
2024/01/15 11:31:38;;;;;;;19.10;4.22;;;2.00;99.90;;;;;;5079483;28;20036;-79
2024/01/15 11:34:03;;;;;;;21.23;4.65;;;2.00;99.90;;;;;;5072873;28;20041;-78
2024/01/15 11:36:48;;;;;;;19.15;4.35;;;2.00;99.90;;;;;;5085262;28;20040;-79
2024/01/15 11:39:30;;;;;;;21.50;5.07;;;2.00;99.90;;;;;;5082468;28;20074;-79
2024/01/15 11:42:01;;;;;;;23.10;5.30;;;2.00;99.90;;;;;;5059112;28;20044;-78
2024/01/15 11:44:27;;;;;;;18.38;4.90;;;2.00;99.90;;;;;;5072725;28;20493;-78
2024/01/15 11:47:00;;;;;;;19.60;4.18;;;2.00;99.90;;;;;;5086100;28;20077;-78
2024/01/15 11:50:06;;;;;;;13.23;3.85;;;2.00;99.90;;;;;;5077723;28;20494;-78
2024/01/15 11:52:36;;;;;;;11.48;3.10;;;2.00;99.90;;;;;;5083441;28;20044;-78
2024/01/15 11:55:13;;;;;;;10.90;2.90;;;1.90;99.90;;;;;;5078840;28;20497;-77
2024/01/15 11:57:52;;;;;;;11.75;2.28;;;1.90;99.90;;;;;;5072756;28;20414;-77
2024/01/15 12:00:18;;;;;;;;;;;2.00;99.90;;;;;;5082340;28;20481;-77
2024/01/15 12:02:45;;;;;;;10.43;2.72;;;1.90;99.90;;;;;;5083467;28;19924;-79
2024/01/15 12:05:15;;;;;;;13.57;2.90;;;2.00;99.90;;;;;;5084231;28;20056;-79
2024/01/15 12:07:45;;;;;;;25.98;3.00;;;2.00;99.90;;;;;;5084144;28;20056;-79
2024/01/15 12:10:12;;;;;;;12.43;2.80;;;2.00;99.90;;;;;;5089818;28;20111;-79
2024/01/15 12:13:02;;;;;;;20.10;2.97;;;2.00;99.90;;;;;;5087867;28;20047;-79
2024/01/15 12:15:30;;;;;;;9.45;2.22;;;2.00;99.90;;;;;;5059598;28;20078;-79
2024/01/15 12:17:58;;;;;;;10.13;2.15;;;2.00;99.90;;;;;;5087228;28;20054;-79
2024/01/15 12:20:25;;;;;;;9.88;2.15;;;2.00;99.90;;;;;;5076878;28;20062;-79
2024/01/15 12:22:50;;;;;;;9.07;2.15;;;2.00;99.90;;;;;;5089120;28;20079;-79
2024/01/15 12:25:16;;;;;;;7.32;2.25;;;2.00;99.90;;;;;;5080998;28;20067;-77
2024/01/15 12:27:42;;;;;;;8.55;2.20;;;1.90;99.90;;;;;;5079848;28;20036;-77
2024/01/15 12:30:11;;;;;;;8.60;2.85;;;1.90;99.90;;;;;;5085999;28;20127;-78
2024/01/15 12:32:36;;;;;;;7.80;1.83;;;1.80;99.90;;;;;;5081364;28;20135;-77
2024/01/15 12:35:03;;;;;;;6.38;1.80;;;1.70;99.90;;;;;;5059824;28;20466;-78
2024/01/15 12:37:29;;;;;;;6.28;2.20;;;1.70;99.90;;;;;;5059553;28;20060;-78
2024/01/15 12:39:54;;;;;;;12.15;2.60;;;1.70;99.90;;;;;;5076431;28;20051;-78
2024/01/15 12:42:21;;;;;;;9.73;3.20;;;1.70;99.90;;;;;;5074258;28;20090;-78
2024/01/15 12:44:47;;;;;;;7.97;2.60;;;1.70;99.90;;;;;;5070374;28;20049;-78
2024/01/15 12:47:14;;;;;;;10.98;3.45;;;1.70;99.90;;;;;;5072898;28;20041;-78